createdAt,value
2023-03-19T00:01:22.581Z,11.3
2023-03-19T00:05:24.944Z,11.4
2023-03-19T00:07:26.157Z,11.2
2023-03-19T00:11:29.792Z,11
2023-03-19T00:13:33.102Z,10.8
2023-03-19T00:15:34.717Z,10.8
2023-03-19T00:17:35.569Z,10.8
2023-03-19T00:18:37.816Z,10.9
2023-03-19T00:22:40.482Z,10.8
2023-03-19T00:24:41.527Z,10.8
2023-03-19T00:28:47.259Z,10.6
2023-03-19T00:30:48.548Z,10.6
2023-03-19T00:32:49.749Z,10.6
2023-03-19T00:34:50.960Z,10.6
2023-03-19T00:36:52.207Z,10.6
2023-03-19T00:38:53.422Z,10.6
2023-03-19T00:40:57.903Z,10.6
2023-03-19T00:42:59.131Z,10.6
2023-03-19T00:45:00.405Z,10.6
2023-03-19T00:47:01.588Z,10.7
2023-03-19T00:49:02.808Z,10.7
2023-03-19T00:51:04.025Z,10.6
2023-03-19T00:53:05.238Z,10.6
2023-03-19T00:57:10.968Z,10.7
2023-03-19T00:59:12.159Z,10.6
2023-03-19T01:01:13.460Z,10.7
2023-03-19T01:05:15.843Z,10.7
2023-03-19T01:07:17.065Z,10.7
2023-03-19T01:15:52.302Z,10.7
2023-03-19T01:19:54.745Z,10.7
2023-03-19T01:21:59.201Z,10.7
2023-03-19T01:24:00.473Z,10.7
2023-03-19T01:26:01.675Z,10.7
2023-03-19T01:28:02.916Z,10.7
2023-03-19T01:30:04.114Z,10.7
2023-03-19T01:32:05.341Z,10.7
2023-03-19T01:34:06.554Z,10.7
2023-03-19T01:36:11.070Z,10.6
2023-03-19T01:40:13.542Z,10.6
2023-03-19T01:42:14.736Z,10.5
2023-03-19T01:44:15.988Z,10.5
2023-03-19T01:46:17.248Z,10.5
2023-03-19T01:50:22.881Z,10.4
2023-03-19T01:52:24.127Z,10.4
2023-03-19T01:54:25.337Z,10.4
2023-03-19T02:00:29.018Z,10.3
2023-03-19T02:02:30.202Z,10.3
2023-03-19T02:04:34.772Z,10.3
2023-03-19T02:06:35.932Z,10.3
2023-03-19T02:08:37.147Z,10.4
2023-03-19T02:09:39.413Z,10.3
2023-03-19T02:11:40.623Z,10.3
2023-03-19T02:13:41.836Z,10.3
2023-03-19T02:15:43.113Z,10.3
2023-03-19T02:21:50.035Z,10.2
2023-03-19T02:23:51.237Z,10.2
2023-03-19T02:25:52.501Z,10.2
2023-03-19T02:27:53.704Z,10.2
2023-03-19T02:29:54.910Z,10.2
2023-03-19T02:31:59.401Z,10.1
2023-03-19T02:34:00.653Z,10.1
2023-03-19T02:36:01.864Z,10.1
2023-03-19T02:38:03.061Z,10
2023-03-19T02:40:04.285Z,10.1
2023-03-19T02:42:05.505Z,10.1
2023-03-19T02:44:06.735Z,10.1
2023-03-19T02:46:11.245Z,10.1
2023-03-19T02:48:12.405Z,10.1
2023-03-19T02:50:13.622Z,10.1
2023-03-19T02:52:14.849Z,10.1
2023-03-19T02:54:16.068Z,10.2
2023-03-19T02:56:17.308Z,10.1
2023-03-19T02:58:18.505Z,10.2
2023-03-19T03:00:23.000Z,10.2
2023-03-19T03:02:24.333Z,10.2
2023-03-19T03:04:25.422Z,10.2
2023-03-19T03:09:30.110Z,10.2
2023-03-19T03:11:31.320Z,10.2
2023-03-19T03:13:35.835Z,10.3
2023-03-19T03:15:37.032Z,10.2
2023-03-19T03:17:38.252Z,10.2
2023-03-19T03:19:39.481Z,10.2
2023-03-19T03:21:40.699Z,10.2
2023-03-19T03:23:41.926Z,10.2
2023-03-19T03:25:43.136Z,10.1
2023-03-19T03:27:47.616Z,10.1
2023-03-19T03:29:48.869Z,10.1
2023-03-19T03:31:50.285Z,10.1
2023-03-19T03:33:51.315Z,10.2
2023-03-19T03:35:52.607Z,10.1
2023-03-19T03:37:53.771Z,10.1
2023-03-19T03:39:54.987Z,10
2023-03-19T03:44:00.715Z,10
2023-03-19T03:46:01.973Z,10
2023-03-19T03:48:03.140Z,9.9
2023-03-19T03:50:04.379Z,9.9
2023-03-19T03:54:06.828Z,9.9
2023-03-19T03:56:12.853Z,9.8
2023-03-19T03:58:14.101Z,9.9
2023-03-19T04:00:15.257Z,9.8
2023-03-19T04:01:17.507Z,9.8
2023-03-19T04:03:18.762Z,9.8
2023-03-19T04:05:19.908Z,9.8
2023-03-19T04:07:21.156Z,9.8
2023-03-19T04:09:25.614Z,9.8
2023-03-19T04:11:26.843Z,9.8
2023-03-19T04:13:28.085Z,9.8
2023-03-19T04:17:30.800Z,9.8
2023-03-19T04:19:32.030Z,9.7
2023-03-19T04:21:33.231Z,9.7
2023-03-19T04:23:37.721Z,9.7
2023-03-19T04:25:38.955Z,9.7
2023-03-19T04:27:40.163Z,9.7
2023-03-19T04:29:41.388Z,9.7
2023-03-19T04:31:42.600Z,9.7
2023-03-19T04:37:49.533Z,9.7
2023-03-19T04:39:50.758Z,9.7
2023-03-19T04:41:51.985Z,9.7
2023-03-19T04:43:53.182Z,9.6
2023-03-19T04:45:54.449Z,9.6
2023-03-19T04:47:55.646Z,9.6
2023-03-19T04:49:56.829Z,9.7
2023-03-19T04:52:02.039Z,9.7
2023-03-19T04:54:02.530Z,9.7
2023-03-19T04:56:03.741Z,9.7
2023-03-19T04:58:32.083Z,9.6
2023-03-19T05:00:33.530Z,9.6
2023-03-19T05:02:34.524Z,9.6
2023-03-19T05:04:39.002Z,9.6
2023-03-19T05:06:40.231Z,9.6
2023-03-19T05:08:41.447Z,9.6
2023-03-19T05:10:42.688Z,9.6
2023-03-19T05:12:43.869Z,9.6
2023-03-19T05:14:45.100Z,9.6
2023-03-19T05:22:53.239Z,9.6
2023-03-19T05:43:08.673Z,9.5
2023-03-19T05:45:09.888Z,9.5
2023-03-19T05:47:14.356Z,9.5
2023-03-19T05:49:15.604Z,9.5
2023-03-19T05:52:19.047Z,9.5
2023-03-19T05:54:20.278Z,9.5
2023-03-19T05:56:21.512Z,9.6
2023-03-19T06:00:27.166Z,9.6
2023-03-19T06:02:28.447Z,9.6
2023-03-19T06:04:29.606Z,9.5
2023-03-19T06:06:30.828Z,9.5
2023-03-19T06:08:32.056Z,9.5
2023-03-19T06:10:33.600Z,9.4
2023-03-19T06:12:34.493Z,9.4
2023-03-19T06:14:38.968Z,9.5
2023-03-19T06:22:43.831Z,9.6
2023-03-19T06:24:45.051Z,9.7
2023-03-19T06:26:46.275Z,9.7
2023-03-19T06:28:50.757Z,9.7
2023-03-19T06:32:53.194Z,9.7
2023-03-19T06:34:54.401Z,9.7
2023-03-19T06:36:55.648Z,9.7
2023-03-19T06:38:56.857Z,9.7
2023-03-19T06:40:58.048Z,9.8
2023-03-19T06:43:02.533Z,9.8
2023-03-19T06:45:03.730Z,9.9
2023-03-19T06:47:04.932Z,9.9
2023-03-19T06:50:08.412Z,9.9
2023-03-19T06:52:09.607Z,9.9
2023-03-19T06:54:10.857Z,9.9
2023-03-19T06:56:15.321Z,9.9
2023-03-19T06:58:16.535Z,9.9
2023-03-19T07:00:17.747Z,9.9
2023-03-19T07:02:18.978Z,9.9
2023-03-19T07:04:20.387Z,9.9
2023-03-19T07:06:21.430Z,9.9
2023-03-19T07:08:22.630Z,9.9
2023-03-19T07:12:28.328Z,9.9
2023-03-19T07:14:29.538Z,10
2023-03-19T07:16:30.811Z,10.2
2023-03-19T07:18:31.968Z,10.2
2023-03-19T07:20:33.591Z,10.2
2023-03-19T07:24:38.906Z,10.2
2023-03-19T07:26:40.097Z,10.2
2023-03-19T07:28:41.344Z,10.3
2023-03-19T07:38:50.698Z,10.4
2023-03-19T07:42:53.102Z,10.6
2023-03-19T07:47:57.784Z,10.5
2023-03-19T07:49:58.995Z,10.6
2023-03-19T08:02:09.613Z,10.8
2023-03-19T08:10:17.776Z,10.9
2023-03-19T08:12:19.013Z,10.9
2023-03-19T08:14:20.209Z,10.9
2023-03-19T08:16:21.596Z,10.9
2023-03-19T08:18:22.663Z,10.9
2023-03-19T08:20:27.135Z,11
2023-03-19T08:22:28.356Z,11
2023-03-19T08:24:29.544Z,10.9
2023-03-19T08:26:30.810Z,10.9
2023-03-19T08:28:32.040Z,11
2023-03-19T08:30:33.501Z,11.1
2023-03-19T08:32:34.533Z,11.3
2023-03-19T08:34:38.987Z,11.2
2023-03-19T08:36:40.228Z,11.1
2023-03-19T08:38:41.444Z,11.2
2023-03-19T08:41:09.746Z,11.2
2023-03-19T08:49:17.876Z,11.2
2023-03-19T08:51:19.140Z,11.2
2023-03-19T08:53:20.315Z,11.1
2023-03-19T08:57:22.736Z,11.2
2023-03-19T09:03:29.697Z,11.3
2023-03-19T09:05:30.914Z,11.2
2023-03-19T09:07:32.112Z,11.3
2023-03-19T09:09:33.349Z,11.5
2023-03-19T09:15:40.339Z,11.9
2023-03-19T09:17:41.518Z,12.2
2023-03-19T09:19:42.745Z,12.5
2023-03-19T09:21:43.979Z,12.7
2023-03-19T09:23:45.192Z,13.1
2023-03-19T09:25:46.316Z,13.8
2023-03-19T09:27:47.447Z,14.1
2023-03-19T09:29:51.730Z,15.9
2023-03-19T09:31:52.829Z,16.5
2023-03-19T09:33:53.948Z,17.8
2023-03-19T09:38:58.313Z,17.9
2023-03-19T09:40:59.431Z,18.3
2023-03-19T09:43:03.707Z,17.7
2023-03-19T09:45:06.370Z,17.6
2023-03-19T09:47:07.531Z,17.2
2023-03-19T09:49:08.554Z,18
2023-03-19T09:51:09.641Z,17.8
2023-03-19T10:01:18.384Z,17.4
2023-03-19T10:05:20.522Z,18.9
2023-03-19T10:07:21.644Z,19.8
2023-03-19T10:09:22.754Z,20
2023-03-19T10:11:27.014Z,19.5
2023-03-19T10:13:28.129Z,19.4
2023-03-19T10:15:29.199Z,20.2
2023-03-19T10:17:30.284Z,20.1
2023-03-19T10:19:31.675Z,20.4
2023-03-19T10:21:32.456Z,20.1
2023-03-19T10:23:33.558Z,21
2023-03-19T10:25:41.054Z,20.1
2023-03-19T10:27:38.904Z,19.6
2023-03-19T10:32:43.288Z,19.2
2023-03-19T10:38:49.631Z,20.1
2023-03-19T10:40:50.683Z,20.8
2023-03-19T10:42:51.787Z,20.9
2023-03-19T10:44:52.843Z,20.5
2023-03-19T10:46:54.113Z,19.2
2023-03-19T10:48:54.981Z,17.7
2023-03-19T10:50:56.050Z,20
2023-03-19T10:53:00.297Z,17.5
2023-03-19T10:55:01.399Z,17.1
2023-03-19T11:26:25.971Z,21.6
2023-03-19T11:28:26.993Z,22
2023-03-19T11:30:28.091Z,20.9
2023-03-19T11:32:29.287Z,19.6
2023-03-19T11:34:33.378Z,17.5
2023-03-19T11:36:34.445Z,17.3
2023-03-19T11:38:35.487Z,17.4
2023-03-19T11:40:36.561Z,17.3
2023-03-19T11:42:37.620Z,17.4
2023-03-19T11:44:38.669Z,17.2
2023-03-19T11:46:39.731Z,17
2023-03-19T11:48:43.965Z,16.3
2023-03-19T11:50:46.585Z,16.2
2023-03-19T11:52:46.111Z,16.1
2023-03-19T11:54:47.161Z,16.4
2023-03-19T11:56:48.247Z,16.4
2023-03-19T11:58:49.299Z,16.2
2023-03-19T12:00:50.357Z,16.2
2023-03-19T12:02:54.620Z,16.2
2023-03-19T12:04:55.706Z,16.3
2023-03-19T12:06:56.749Z,16.6
2023-03-19T12:08:57.847Z,16.5
2023-03-19T12:13:00.013Z,15.8
2023-03-19T12:15:01.083Z,15.8
2023-03-19T12:17:05.355Z,15.8
2023-03-19T12:21:07.496Z,16
2023-03-19T12:25:36.742Z,16.5
2023-03-19T12:39:47.868Z,16
2023-03-19T12:41:48.379Z,16
2023-03-19T12:53:58.104Z,15.5
2023-03-19T12:55:59.209Z,15.6
2023-03-19T12:58:03.488Z,15.9
2023-03-19T13:04:06.758Z,16
2023-03-19T13:06:07.830Z,15.6
2023-03-19T13:08:08.933Z,15.6
2023-03-19T13:10:10.037Z,15.4
2023-03-19T13:12:14.281Z,15
2023-03-19T13:14:15.399Z,14.9
2023-03-19T13:16:16.571Z,15
2023-03-19T13:17:21.252Z,14.9
2023-03-19T13:19:19.698Z,15
2023-03-19T13:21:20.821Z,14.8
2023-03-19T13:25:26.170Z,14.4
2023-03-19T13:29:28.342Z,14.3
2023-03-19T13:31:29.514Z,14.5
2023-03-19T13:33:30.546Z,14.4
2023-03-19T13:35:31.748Z,14.3
2023-03-19T13:37:32.775Z,14.1
2023-03-19T13:39:37.043Z,13.9
2023-03-19T13:41:38.131Z,13.8
2023-03-19T13:43:39.239Z,13.3
2023-03-19T13:45:40.358Z,13.4
2023-03-19T13:49:42.561Z,13.2
2023-03-19T13:51:43.658Z,13.4
2023-03-19T13:53:47.944Z,13.3
2023-03-19T13:55:49.068Z,13.5
2023-03-19T13:57:50.138Z,13.7
2023-03-19T13:59:51.257Z,13.6
2023-03-19T14:01:52.379Z,13.7
2023-03-19T14:03:53.522Z,13.6
2023-03-19T14:07:58.867Z,14.2
2023-03-19T14:10:00.005Z,14.3
2023-03-19T14:12:01.054Z,13.7
2023-03-19T14:13:03.236Z,13.6
2023-03-19T14:15:04.336Z,13.6
2023-03-19T14:23:11.956Z,13.7
2023-03-19T14:25:13.045Z,13.9
2023-03-19T14:27:14.839Z,14.1
2023-03-19T14:29:15.969Z,14.1
2023-03-19T14:33:18.226Z,14
2023-03-19T14:35:22.453Z,13.4
2023-03-19T14:41:25.785Z,13.5
2023-03-19T14:45:28.069Z,13.7
2023-03-19T14:47:29.156Z,13.7
2023-03-19T14:49:33.448Z,13.7
2023-03-19T14:51:34.572Z,13.7
2023-03-19T14:53:35.719Z,13.8
2023-03-19T14:55:37.019Z,14
2023-03-19T14:57:38.061Z,13.9
2023-03-19T14:59:39.174Z,13.8
2023-03-19T15:01:40.261Z,13.7
2023-03-19T15:07:46.771Z,13.4
2023-03-19T15:08:48.935Z,13.4
2023-03-19T15:10:50.109Z,13.4
2023-03-19T15:12:51.169Z,13.3
2023-03-19T15:14:52.276Z,13.5
2023-03-19T15:16:56.932Z,13.7
2023-03-19T15:18:57.669Z,13.7
2023-03-19T15:20:58.825Z,13.8
2023-03-19T15:22:59.933Z,13.8
2023-03-19T15:25:01.039Z,13.8
2023-03-19T15:33:16.446Z,14
2023-03-19T15:35:11.596Z,13.9
2023-03-19T15:37:12.456Z,13.6
2023-03-19T15:39:13.520Z,13.6
2023-03-19T15:41:14.638Z,13.6
2023-03-19T15:43:15.772Z,13.4
2023-03-19T15:45:20.047Z,13.6
2023-03-19T15:47:21.172Z,13.6
2023-03-19T15:49:22.265Z,13.6
2023-03-19T15:53:24.491Z,13.6
2023-03-19T15:55:25.610Z,13.7
2023-03-19T15:57:26.715Z,13.7
2023-03-19T15:59:31.000Z,13.3
2023-03-19T16:08:02.396Z,13.3
2023-03-19T16:10:03.516Z,13.1
2023-03-19T16:12:07.767Z,12.7
2023-03-19T16:14:08.909Z,12.7
2023-03-19T16:16:10.058Z,12.8
2023-03-19T16:18:11.159Z,13
2023-03-19T16:20:12.243Z,13
2023-03-19T16:22:13.375Z,13.1
2023-03-19T16:24:14.513Z,12.9
2023-03-19T16:26:18.769Z,12.8
2023-03-19T16:28:19.894Z,12.8
2023-03-19T16:30:21.022Z,12.7
2023-03-19T16:32:22.131Z,12.7
2023-03-19T16:34:23.242Z,12.6
2023-03-19T16:36:24.383Z,12.7
2023-03-19T16:38:25.490Z,12.6
2023-03-19T16:40:29.794Z,12.5
2023-03-19T16:48:34.343Z,12.4
2023-03-19T16:50:35.482Z,12.4
2023-03-19T16:52:36.728Z,12.4
2023-03-19T16:54:41.117Z,12.3
2023-03-19T16:59:45.492Z,12.3
2023-03-19T17:01:46.687Z,12.4
2023-03-19T17:03:47.763Z,12.4
2023-03-19T17:05:48.993Z,12.2
2023-03-19T17:07:53.366Z,12.1
2023-03-19T17:09:54.592Z,12.1
2023-03-19T17:11:55.816Z,12
2023-03-19T17:13:57.054Z,12
2023-03-19T17:15:58.337Z,12
2023-03-19T17:17:59.522Z,11.9
2023-03-19T17:20:00.736Z,11.9
2023-03-19T17:22:05.231Z,11.9
2023-03-19T17:28:08.925Z,11.9
2023-03-19T17:30:10.138Z,11.9
2023-03-19T17:32:11.349Z,11.9
2023-03-19T17:34:12.622Z,11.8
2023-03-19T17:36:17.077Z,11.6
2023-03-19T17:38:18.306Z,11.6
2023-03-19T17:40:19.566Z,11.6
2023-03-19T17:42:20.795Z,11.6
2023-03-19T17:44:22.034Z,11.5
2023-03-19T17:46:23.387Z,11.5
2023-03-19T17:48:24.487Z,11.5
2023-03-19T17:52:30.194Z,11.3
2023-03-19T17:55:33.661Z,11.3
2023-03-19T17:57:34.919Z,11.3
2023-03-19T17:59:36.119Z,11.2
2023-03-19T18:01:37.373Z,11.2
2023-03-19T18:03:41.882Z,11.2
2023-03-19T18:05:43.093Z,11.2
2023-03-19T18:07:44.320Z,11.1
2023-03-19T18:09:45.540Z,11.1
2023-03-19T18:11:46.785Z,11
2023-03-19T18:13:47.991Z,11
2023-03-19T18:17:53.688Z,11
2023-03-19T18:23:57.419Z,10.9
2023-03-19T18:27:59.856Z,10.9
2023-03-19T18:30:01.076Z,10.9
2023-03-19T18:32:05.661Z,10.9
2023-03-19T18:34:06.804Z,10.8
2023-03-19T18:36:08.036Z,10.8
2023-03-19T18:44:12.931Z,10.8
2023-03-19T18:50:19.934Z,10.7
2023-03-19T18:51:22.126Z,10.7
2023-03-19T18:53:23.345Z,10.6
2023-03-19T18:55:24.610Z,10.6
2023-03-19T18:57:25.838Z,10.6
2023-03-19T18:59:30.375Z,10.6
2023-03-19T19:01:31.538Z,10.7
2023-03-19T19:03:32.759Z,10.6
2023-03-19T19:05:33.996Z,10.6
2023-03-19T19:07:35.233Z,10.5
2023-03-19T19:09:36.482Z,10.5
2023-03-19T19:11:37.814Z,10.5
2023-03-19T19:13:55.083Z,10.4
2023-03-19T19:15:43.414Z,10.5
2023-03-19T19:17:44.645Z,10.5
2023-03-19T19:19:45.891Z,10.5
2023-03-19T19:21:47.096Z,10.5
2023-03-19T19:27:54.036Z,10.6
2023-03-19T19:29:55.298Z,10.6
2023-03-19T19:31:56.473Z,10.6
2023-03-19T19:35:58.986Z,10.6
2023-03-19T19:38:00.171Z,10.6
2023-03-19T19:42:05.868Z,10.6
2023-03-19T19:52:39.117Z,10.5
2023-03-19T19:56:44.851Z,10.5
2023-03-19T19:58:46.065Z,10.5
2023-03-19T20:01:00.207Z,10.3
2023-03-19T20:02:48.527Z,10.3
2023-03-19T20:10:56.673Z,10.4
2023-03-19T20:12:57.862Z,10.3
2023-03-19T20:14:59.090Z,10.4
2023-03-19T20:17:00.295Z,10.4
2023-03-19T20:19:01.530Z,10.4
2023-03-19T20:21:02.756Z,10.4
2023-03-19T20:23:07.242Z,10.4
2023-03-19T20:25:08.459Z,10.4
2023-03-19T20:27:09.671Z,10.3
2023-03-19T20:29:11.106Z,10.3
2023-03-19T20:31:12.395Z,10.2
2023-03-19T20:33:13.599Z,10.2
2023-03-19T20:35:14.791Z,10.2
2023-03-19T20:37:19.251Z,10.1
2023-03-19T20:39:20.483Z,10.1
2023-03-19T20:42:23.934Z,10.1
2023-03-19T20:48:27.597Z,10.1
2023-03-19T20:50:32.100Z,10.2
2023-03-19T20:52:33.289Z,10.2
2023-03-19T20:54:34.529Z,10.3
2023-03-19T20:56:35.738Z,10.2
2023-03-19T20:58:37.106Z,10.2
2023-03-19T21:00:38.185Z,10.2
2023-03-19T21:02:39.474Z,10.2
2023-03-19T21:04:43.878Z,10.2
2023-03-19T21:06:53.077Z,10.2
2023-03-19T21:08:46.294Z,10.2
2023-03-19T21:18:55.687Z,10.2
2023-03-19T21:25:00.883Z,10.1
2023-03-19T21:27:04.022Z,10.2
2023-03-19T21:29:03.282Z,10.2
2023-03-19T21:31:04.578Z,10.1
2023-03-19T21:33:09.036Z,10
2023-03-19T21:35:10.211Z,10
2023-03-19T21:37:11.444Z,10
2023-03-19T21:38:13.683Z,10
2023-03-19T21:40:14.894Z,10
2023-03-19T21:48:23.088Z,10
2023-03-19T21:50:24.269Z,10
2023-03-19T22:00:33.688Z,9.9
2023-03-19T22:02:34.839Z,9.9
2023-03-19T22:04:36.075Z,9.9
2023-03-19T22:06:37.291Z,9.9
2023-03-19T22:08:38.539Z,9.9
2023-03-19T22:12:40.953Z,9.9
2023-03-19T22:14:45.442Z,9.8
2023-03-19T22:16:46.791Z,9.8
2023-03-19T22:18:47.890Z,9.8
2023-03-19T22:20:49.092Z,9.7
2023-03-19T22:22:50.303Z,9.7
2023-03-19T22:24:51.523Z,9.7
2023-03-19T22:26:52.770Z,9.7
2023-03-19T22:28:57.246Z,9.7
2023-03-19T22:30:58.485Z,9.7
2023-03-19T22:32:59.693Z,9.7
2023-03-19T22:36:03.161Z,9.6
2023-03-19T22:38:04.357Z,9.6
2023-03-19T22:40:05.555Z,9.6
2023-03-19T22:46:12.583Z,9.4
2023-03-19T22:48:13.703Z,9.4
2023-03-19T22:50:14.904Z,9.4
2023-03-19T22:52:16.140Z,9.4
2023-03-19T22:54:17.364Z,9.4
2023-03-19T22:56:21.865Z,9.3
2023-03-19T22:58:23.059Z,9.2
2023-03-19T23:00:24.300Z,9.2
2023-03-19T23:02:25.485Z,9.2
2023-03-19T23:04:26.793Z,9.2
2023-03-19T23:06:30.721Z,9.2
2023-03-19T23:08:29.144Z,9.2
2023-03-19T23:10:33.609Z,9.2
2023-03-19T23:12:34.815Z,9.2
2023-03-19T23:14:36.069Z,9.2
2023-03-19T23:16:37.274Z,9.2
2023-03-19T23:18:38.522Z,9.1
2023-03-19T23:20:39.683Z,9.1
2023-03-19T23:22:40.894Z,9.1
2023-03-19T23:24:45.373Z,9.1
2023-03-19T23:26:46.591Z,9
2023-03-19T23:28:47.792Z,8.9
2023-03-19T23:31:16.211Z,8.9
2023-03-19T23:33:17.331Z,8.8
2023-03-19T23:35:18.521Z,8.9
2023-03-19T23:37:23.023Z,8.9
2023-03-19T23:41:25.423Z,8.8
2023-03-19T23:45:27.867Z,8.8
2023-03-19T23:47:29.123Z,8.8
2023-03-19T23:49:30.299Z,8.8
2023-03-19T23:53:35.981Z,8.7
2023-03-19T23:55:37.424Z,8.7
2023-03-19T23:57:38.430Z,8.7
2023-03-19T23:59:39.614Z,8.7
